< Typhoon 201812 2018 Season Typhoon 201814 >
Typhoon 201813 (SHANSHAN)
General InformationTrack Information on Google MapsDetailed Wind InformationForecast History on Google MapsAccess Analytics MapList of All Images || NewsDisaster Info.WeblogTrackbackTyphoon FrontTwiphoonTyphoon Now!Typhoon ImaginationJMA Disaster Info. XMLResourceGoogle EarthGE AnimationAtom FeedGeoJSON
Detalied Best Track (Time Zone = UTC)
Year Month Day Hour Lat. Long. Pressure (hPa) Wind (kt) Class Image Chart
2018 8 2 06 18.1 152.0 1002 0 2 Image Chart
2018 8 2 12 17.7 151.8 1002 0 2 Image Chart
2018 8 2 18 17.7 151.3 1000 0 2 Image Chart
2018 8 3 00 17.7 150.9 998 35 3 Image Chart
2018 8 3 06 18.0 150.6 996 40 3 Image Chart
2018 8 3 12 18.2 150.3 990 50 4 Image Chart
2018 8 3 18 18.9 150.0 990 50 4 Image Chart
2018 8 4 00 20.1 149.3 985 55 4 Image Chart
2018 8 4 06 20.9 148.7 975 65 5 Image Chart
2018 8 4 12 21.6 148.4 975 65 5 Image Chart
2018 8 4 18 22.5 147.7 970 70 5 Image Chart
2018 8 5 00 22.9 147.4 970 70 5 Image Chart
2018 8 5 06 23.8 147.5 970 70 5 Image Chart
2018 8 5 12 24.6 147.3 970 70 5 Image Chart
2018 8 5 18 25.6 146.7 970 70 5 Image Chart
2018 8 6 00 26.5 146.2 970 70 5 Image Chart
2018 8 6 06 27.5 146.0 970 70 5 Image Chart
2018 8 6 12 28.5 145.7 970 70 5 Image Chart
2018 8 6 18 29.7 145.0 970 70 5 Image Chart
2018 8 7 00 30.5 144.3 970 70 5 Image Chart
2018 8 7 06 31.3 143.9 970 70 5 Image Chart
2018 8 7 12 32.0 143.1 970 70 5 Image Chart
2018 8 7 18 32.5 142.2 970 70 5 Image Chart
2018 8 8 00 33.3 141.9 970 70 5 Image Chart
2018 8 8 03 33.5 141.5 975 65 5 Image Chart
2018 8 8 06 33.8 141.2 975 65 5 Image Chart
2018 8 8 09 34.1 141.3 975 65 5 Image Chart
2018 8 8 12 34.5 141.3 975 65 5 Image Chart
2018 8 8 15 34.8 141.2 975 65 5 Image Chart
2018 8 8 18 35.3 141.0 975 65 5 Image Chart
2018 8 8 21 35.8 141.0 975 65 5 Image Chart
2018 8 9 00 36.2 141.1 980 60 4 Image Chart
2018 8 9 03 36.8 141.2 980 60 4 Image Chart
2018 8 9 06 37.3 141.4 980 60 4 Image Chart
2018 8 9 09 37.6 141.9 980 55 4 Image Chart
2018 8 9 12 37.9 142.5 985 50 4 Image Chart
2018 8 9 18 39.1 144.1 990 45 3 Image Chart
2018 8 10 00 40.0 147.2 992 45 3 Image Chart
2018 8 10 06 41.0 151.0 992 0 6 Image Chart
2018 8 10 12 41.3 154.6 992 0 6 Image Chart
2018 8 10 18 41.2 158.4 994 0 6 Image Chart
2018 8 11 00 41.1 163.4 996 0 6 Image Chart
2018 8 11 06 40.6 169.4 998 0 6 Image Chart
Japan Meteorological Agency Best Track Data | Correction Date : 2018-09-11
< Typhoon 201812 2018 Season Typhoon 201814 >

Help